sensor_id;sensor_type;location;lat;lon;timestamp;temperature;humidity
65146;DHT22;51730;56.950;24.126;2023-02-22T00:01:10;-0.40;99.40
65146;DHT22;51730;56.950;24.126;2023-02-22T00:03:48;-0.40;98.90
65146;DHT22;51730;56.950;24.126;2023-02-22T00:06:16;-0.30;99.70
65146;DHT22;51730;56.950;24.126;2023-02-22T00:08:43;-0.30;98.60
65146;DHT22;51730;56.950;24.126;2023-02-22T00:11:10;-0.30;97.70
65146;DHT22;51730;56.950;24.126;2023-02-22T00:13:36;-0.30;95.50
65146;DHT22;51730;56.950;24.126;2023-02-22T00:16:04;-0.40;95.90
65146;DHT22;51730;56.950;24.126;2023-02-22T00:18:31;-0.50;95.10
65146;DHT22;51730;56.950;24.126;2023-02-22T00:20:58;-0.50;97.70
65146;DHT22;51730;56.950;24.126;2023-02-22T00:23:26;-0.50;97.40
65146;DHT22;51730;56.950;24.126;2023-02-22T00:25:54;-0.60;98.30
65146;DHT22;51730;56.950;24.126;2023-02-22T00:28:21;-0.70;99.70
65146;DHT22;51730;56.950;24.126;2023-02-22T00:30:51;-0.70;99.90
65146;DHT22;51730;56.950;24.126;2023-02-22T00:33:18;-0.70;99.90
65146;DHT22;51730;56.950;24.126;2023-02-22T00:35:45;-0.60;99.90
65146;DHT22;51730;56.950;24.126;2023-02-22T00:38:13;-0.60;99.50
65146;DHT22;51730;56.950;24.126;2023-02-22T00:40:40;-0.60;99.90
65146;DHT22;51730;56.950;24.126;2023-02-22T00:43:07;-0.40;99.90
65146;DHT22;51730;56.950;24.126;2023-02-22T00:45:34;-0.30;99.90
65146;DHT22;51730;56.950;24.126;2023-02-22T00:48:02;-0.30;99.90
65146;DHT22;51730;56.950;24.126;2023-02-22T00:50:29;-0.20;99.90
65146;DHT22;51730;56.950;24.126;2023-02-22T00:52:57;-0.30;99.90
65146;DHT22;51730;56.950;24.126;2023-02-22T00:55:29;-0.30;99.90
65146;DHT22;51730;56.950;24.126;2023-02-22T00:57:56;-0.20;99.90
65146;DHT22;51730;56.950;24.126;2023-02-22T01:02:49;-0.10;99.90
65146;DHT22;51730;56.950;24.126;2023-02-22T01:05:18;-0.10;99.90
65146;DHT22;51730;56.950;24.126;2023-02-22T01:07:47;-0.20;97.30
65146;DHT22;51730;56.950;24.126;2023-02-22T01:10:17;-0.40;96.10
65146;DHT22;51730;56.950;24.126;2023-02-22T01:12:45;-0.50;97.70
65146;DHT22;51730;56.950;24.126;2023-02-22T01:15:12;-0.60;99.10
65146;DHT22;51730;56.950;24.126;2023-02-22T01:17:39;-0.80;99.90
65146;DHT22;51730;56.950;24.126;2023-02-22T01:20:07;-0.80;99.90
65146;DHT22;51730;56.950;24.126;2023-02-22T01:22:41;-0.90;99.90
65146;DHT22;51730;56.950;24.126;2023-02-22T01:25:08;-1.00;99.90
65146;DHT22;51730;56.950;24.126;2023-02-22T01:27:39;-1.00;99.90
65146;DHT22;51730;56.950;24.126;2023-02-22T01:30:06;-1.00;99.90
65146;DHT22;51730;56.950;24.126;2023-02-22T01:32:34;-1.00;99.90
65146;DHT22;51730;56.950;24.126;2023-02-22T01:35:02;-1.10;99.90
65146;DHT22;51730;56.950;24.126;2023-02-22T01:37:30;-1.20;99.90
65146;DHT22;51730;56.950;24.126;2023-02-22T01:39:58;-1.00;99.90
65146;DHT22;51730;56.950;24.126;2023-02-22T01:42:25;-0.80;99.90
65146;DHT22;51730;56.950;24.126;2023-02-22T01:47:37;-1.00;99.90
65146;DHT22;51730;56.950;24.126;2023-02-22T01:50:04;-1.30;99.90
65146;DHT22;51730;56.950;24.126;2023-02-22T01:52:32;-1.30;99.90
65146;DHT22;51730;56.950;24.126;2023-02-22T01:54:59;-1.30;99.90
65146;DHT22;51730;56.950;24.126;2023-02-22T01:57:33;-1.30;99.90
65146;DHT22;51730;56.950;24.126;2023-02-22T02:00:07;-1.40;99.90
65146;DHT22;51730;56.950;24.126;2023-02-22T02:02:44;-1.30;99.90
65146;DHT22;51730;56.950;24.126;2023-02-22T02:05:11;-1.40;99.90
65146;DHT22;51730;56.950;24.126;2023-02-22T02:07:38;-1.40;99.90
65146;DHT22;51730;56.950;24.126;2023-02-22T02:10:11;-1.50;99.90
65146;DHT22;51730;56.950;24.126;2023-02-22T02:12:44;-1.50;99.90
65146;DHT22;51730;56.950;24.126;2023-02-22T02:15:16;-1.50;99.90
65146;DHT22;51730;56.950;24.126;2023-02-22T02:17:43;-1.50;99.90
65146;DHT22;51730;56.950;24.126;2023-02-22T02:33:30;-1.40;99.90
65146;DHT22;51730;56.950;24.126;2023-02-22T02:36:03;-1.10;99.90
65146;DHT22;51730;56.950;24.126;2023-02-22T02:41:06;-1.60;99.90
65146;DHT22;51730;56.950;24.126;2023-02-22T02:46:11;-1.60;99.90
65146;DHT22;51730;56.950;24.126;2023-02-22T02:48:41;-1.60;99.90
65146;DHT22;51730;56.950;24.126;2023-02-22T02:51:09;-1.40;99.90
65146;DHT22;51730;56.950;24.126;2023-02-22T02:53:37;-1.30;99.90
65146;DHT22;51730;56.950;24.126;2023-02-22T02:56:04;-1.20;99.90
65146;DHT22;51730;56.950;24.126;2023-02-22T02:58:31;-1.30;99.90
65146;DHT22;51730;56.950;24.126;2023-02-22T03:00:59;-1.50;99.90
65146;DHT22;51730;56.950;24.126;2023-02-22T03:03:50;-1.70;99.90
65146;DHT22;51730;56.950;24.126;2023-02-22T03:06:36;-1.70;99.90
65146;DHT22;51730;56.950;24.126;2023-02-22T03:12:07;-1.70;99.90
65146;DHT22;51730;56.950;24.126;2023-02-22T03:14:53;-1.60;99.90
65146;DHT22;51730;56.950;24.126;2023-02-22T03:17:24;-1.80;99.90
65146;DHT22;51730;56.950;24.126;2023-02-22T03:20:08;-1.60;99.90
65146;DHT22;51730;56.950;24.126;2023-02-22T03:25:13;-0.90;99.90
65146;DHT22;51730;56.950;24.126;2023-02-22T03:27:44;-1.10;97.00
65146;DHT22;51730;56.950;24.126;2023-02-22T03:30:24;-1.40;99.20
65146;DHT22;51730;56.950;24.126;2023-02-22T03:32:55;-1.40;99.40
65146;DHT22;51730;56.950;24.126;2023-02-22T03:35:24;-1.50;99.20
65146;DHT22;51730;56.950;24.126;2023-02-22T03:37:53;-1.40;99.90
65146;DHT22;51730;56.950;24.126;2023-02-22T03:40:24;-1.20;99.90
65146;DHT22;51730;56.950;24.126;2023-02-22T03:42:53;-1.40;97.10
65146;DHT22;51730;56.950;24.126;2023-02-22T03:45:24;-1.60;96.60
65146;DHT22;51730;56.950;24.126;2023-02-22T03:47:57;-1.80;97.70
65146;DHT22;51730;56.950;24.126;2023-02-22T03:50:28;-1.70;99.00
65146;DHT22;51730;56.950;24.126;2023-02-22T03:52:58;-1.60;98.80
65146;DHT22;51730;56.950;24.126;2023-02-22T03:55:25;-1.40;99.50
65146;DHT22;51730;56.950;24.126;2023-02-22T03:57:55;-1.50;94.20
65146;DHT22;51730;56.950;24.126;2023-02-22T04:00:25;-1.70;93.60
65146;DHT22;51730;56.950;24.126;2023-02-22T04:02:52;-1.70;94.90
65146;DHT22;51730;56.950;24.126;2023-02-22T04:05:19;-1.80;93.30
65146;DHT22;51730;56.950;24.126;2023-02-22T04:07:46;-1.90;91.90
65146;DHT22;51730;56.950;24.126;2023-02-22T04:10:14;-1.80;92.60
65146;DHT22;51730;56.950;24.126;2023-02-22T04:12:41;-1.70;92.50
65146;DHT22;51730;56.950;24.126;2023-02-22T04:15:08;-1.70;92.30
65146;DHT22;51730;56.950;24.126;2023-02-22T04:17:35;-1.70;90.70
65146;DHT22;51730;56.950;24.126;2023-02-22T04:20:02;-1.70;89.50
65146;DHT22;51730;56.950;24.126;2023-02-22T04:22:30;-1.70;90.20
65146;DHT22;51730;56.950;24.126;2023-02-22T04:24:57;-1.80;90.30
65146;DHT22;51730;56.950;24.126;2023-02-22T04:27:23;-1.80;89.90
65146;DHT22;51730;56.950;24.126;2023-02-22T04:29:50;-1.80;90.60
65146;DHT22;51730;56.950;24.126;2023-02-22T04:32:17;-1.80;90.70
65146;DHT22;51730;56.950;24.126;2023-02-22T04:34:44;-1.70;92.50
65146;DHT22;51730;56.950;24.126;2023-02-22T04:37:11;-1.40;92.70
65146;DHT22;51730;56.950;24.126;2023-02-22T04:39:38;-1.40;89.50
65146;DHT22;51730;56.950;24.126;2023-02-22T04:42:05;-1.50;90.20
65146;DHT22;51730;56.950;24.126;2023-02-22T04:44:32;-1.20;91.30
65146;DHT22;51730;56.950;24.126;2023-02-22T04:46:59;-1.40;86.90
65146;DHT22;51730;56.950;24.126;2023-02-22T04:49:26;-1.70;86.40
65146;DHT22;51730;56.950;24.126;2023-02-22T04:51:53;-1.60;90.60
65146;DHT22;51730;56.950;24.126;2023-02-22T04:54:20;-1.70;86.30
65146;DHT22;51730;56.950;24.126;2023-02-22T04:56:47;-1.70;88.10
65146;DHT22;51730;56.950;24.126;2023-02-22T04:59:14;-1.80;86.60
65146;DHT22;51730;56.950;24.126;2023-02-22T05:01:41;-1.90;88.40
65146;DHT22;51730;56.950;24.126;2023-02-22T05:04:07;-1.70;91.30
65146;DHT22;51730;56.950;24.126;2023-02-22T05:06:35;-1.70;90.20
65146;DHT22;51730;56.950;24.126;2023-02-22T05:09:02;-1.50;89.00
65146;DHT22;51730;56.950;24.126;2023-02-22T05:11:29;-1.60;87.00
65146;DHT22;51730;56.950;24.126;2023-02-22T05:13:56;-1.60;89.70
65146;DHT22;51730;56.950;24.126;2023-02-22T05:16:23;-1.70;89.40
65146;DHT22;51730;56.950;24.126;2023-02-22T05:18:50;-1.40;90.20
65146;DHT22;51730;56.950;24.126;2023-02-22T05:21:16;-1.30;89.20
65146;DHT22;51730;56.950;24.126;2023-02-22T05:23:43;-1.50;87.60
65146;DHT22;51730;56.950;24.126;2023-02-22T05:26:10;-1.30;88.70
65146;DHT22;51730;56.950;24.126;2023-02-22T05:28:37;-1.60;87.50
65146;DHT22;51730;56.950;24.126;2023-02-22T05:31:04;-1.90;90.30
65146;DHT22;51730;56.950;24.126;2023-02-22T05:33:33;-1.60;92.30
65146;DHT22;51730;56.950;24.126;2023-02-22T05:36:00;-1.30;90.50
65146;DHT22;51730;56.950;24.126;2023-02-22T05:38:27;-1.20;90.20
65146;DHT22;51730;56.950;24.126;2023-02-22T05:40:53;-1.40;85.30
65146;DHT22;51730;56.950;24.126;2023-02-22T05:43:20;-1.40;88.90
65146;DHT22;51730;56.950;24.126;2023-02-22T05:45:47;-1.40;85.40
65146;DHT22;51730;56.950;24.126;2023-02-22T05:48:14;-1.60;84.90
65146;DHT22;51730;56.950;24.126;2023-02-22T05:50:41;-1.50;88.60
65146;DHT22;51730;56.950;24.126;2023-02-22T05:53:09;-1.40;84.50
65146;DHT22;51730;56.950;24.126;2023-02-22T05:55:36;-1.50;85.60
65146;DHT22;51730;56.950;24.126;2023-02-22T05:58:02;-1.60;85.10
65146;DHT22;51730;56.950;24.126;2023-02-22T06:00:31;-1.70;84.20
65146;DHT22;51730;56.950;24.126;2023-02-22T06:02:59;-1.70;86.50
65146;DHT22;51730;56.950;24.126;2023-02-22T06:05:27;-1.60;84.70
65146;DHT22;51730;56.950;24.126;2023-02-22T06:07:55;-1.70;85.40
65146;DHT22;51730;56.950;24.126;2023-02-22T06:10:22;-1.90;86.90
65146;DHT22;51730;56.950;24.126;2023-02-22T06:12:49;-2.00;87.40
65146;DHT22;51730;56.950;24.126;2023-02-22T06:15:17;-1.80;88.90
65146;DHT22;51730;56.950;24.126;2023-02-22T06:17:44;-1.80;87.30
65146;DHT22;51730;56.950;24.126;2023-02-22T06:20:11;-2.00;88.10
65146;DHT22;51730;56.950;24.126;2023-02-22T06:22:38;-2.10;88.10
65146;DHT22;51730;56.950;24.126;2023-02-22T06:25:07;-2.20;90.00
65146;DHT22;51730;56.950;24.126;2023-02-22T06:27:34;-2.10;88.60
65146;DHT22;51730;56.950;24.126;2023-02-22T06:30:01;-2.00;89.80
65146;DHT22;51730;56.950;24.126;2023-02-22T06:32:28;-2.00;85.70
65146;DHT22;51730;56.950;24.126;2023-02-22T06:34:55;-1.90;85.40
65146;DHT22;51730;56.950;24.126;2023-02-22T06:37:22;-1.80;88.30
65146;DHT22;51730;56.950;24.126;2023-02-22T06:39:49;-1.70;84.60
65146;DHT22;51730;56.950;24.126;2023-02-22T06:42:15;-1.90;83.10
65146;DHT22;51730;56.950;24.126;2023-02-22T06:44:42;-2.00;85.00
65146;DHT22;51730;56.950;24.126;2023-02-22T06:47:09;-2.20;86.50
65146;DHT22;51730;56.950;24.126;2023-02-22T06:49:36;-2.00;88.80
65146;DHT22;51730;56.950;24.126;2023-02-22T06:52:04;-1.90;88.10
65146;DHT22;51730;56.950;24.126;2023-02-22T06:54:31;-1.80;87.70
65146;DHT22;51730;56.950;24.126;2023-02-22T06:56:58;-1.50;86.50
65146;DHT22;51730;56.950;24.126;2023-02-22T06:59:24;-1.60;82.50
65146;DHT22;51730;56.950;24.126;2023-02-22T07:01:51;-1.60;83.70
65146;DHT22;51730;56.950;24.126;2023-02-22T07:04:18;-1.20;85.20
65146;DHT22;51730;56.950;24.126;2023-02-22T07:06:46;-1.30;82.30
65146;DHT22;51730;56.950;24.126;2023-02-22T07:09:13;-1.30;82.00
65146;DHT22;51730;56.950;24.126;2023-02-22T07:11:41;-1.50;82.80
65146;DHT22;51730;56.950;24.126;2023-02-22T07:14:08;-1.40;81.30
65146;DHT22;51730;56.950;24.126;2023-02-22T07:16:35;-1.70;81.00
65146;DHT22;51730;56.950;24.126;2023-02-22T07:19:02;-1.90;83.90
65146;DHT22;51730;56.950;24.126;2023-02-22T07:21:28;-2.00;84.10
65146;DHT22;51730;56.950;24.126;2023-02-22T07:23:56;-2.00;86.00
65146;DHT22;51730;56.950;24.126;2023-02-22T07:26:25;-1.80;86.10
65146;DHT22;51730;56.950;24.126;2023-02-22T07:28:51;-1.40;85.40
65146;DHT22;51730;56.950;24.126;2023-02-22T07:31:18;-1.50;81.60
65146;DHT22;51730;56.950;24.126;2023-02-22T07:33:46;-1.60;83.10
65146;DHT22;51730;56.950;24.126;2023-02-22T07:36:14;-1.60;83.20
65146;DHT22;51730;56.950;24.126;2023-02-22T07:38:43;-1.50;81.70
65146;DHT22;51730;56.950;24.126;2023-02-22T07:41:11;-1.70;82.00
65146;DHT22;51730;56.950;24.126;2023-02-22T07:43:38;-1.90;82.80
65146;DHT22;51730;56.950;24.126;2023-02-22T07:46:05;-2.00;84.80
65146;DHT22;51730;56.950;24.126;2023-02-22T07:48:32;-1.90;84.30
65146;DHT22;51730;56.950;24.126;2023-02-22T07:50:59;-1.60;84.00
65146;DHT22;51730;56.950;24.126;2023-02-22T07:53:30;-1.60;81.30
65146;DHT22;51730;56.950;24.126;2023-02-22T07:55:58;-1.60;83.20
65146;DHT22;51730;56.950;24.126;2023-02-22T07:58:26;-1.40;83.10
65146;DHT22;51730;56.950;24.126;2023-02-22T08:00:54;-1.40;82.90
65146;DHT22;51730;56.950;24.126;2023-02-22T08:03:22;-1.10;84.40
65146;DHT22;51730;56.950;24.126;2023-02-22T08:05:52;-1.10;80.80
65146;DHT22;51730;56.950;24.126;2023-02-22T08:08:20;-1.50;81.10
65146;DHT22;51730;56.950;24.126;2023-02-22T08:10:47;-1.70;84.80
65146;DHT22;51730;56.950;24.126;2023-02-22T08:13:14;-1.70;85.40
65146;DHT22;51730;56.950;24.126;2023-02-22T08:15:41;-1.80;86.70
65146;DHT22;51730;56.950;24.126;2023-02-22T08:18:10;-1.70;85.20
65146;DHT22;51730;56.950;24.126;2023-02-22T08:20:39;-1.80;88.10
65146;DHT22;51730;56.950;24.126;2023-02-22T08:23:06;-1.80;88.00
65146;DHT22;51730;56.950;24.126;2023-02-22T08:25:33;-1.60;90.10
65146;DHT22;51730;56.950;24.126;2023-02-22T08:28:02;-1.30;86.70
65146;DHT22;51730;56.950;24.126;2023-02-22T08:30:31;-1.20;84.50
65146;DHT22;51730;56.950;24.126;2023-02-22T08:32:58;-1.10;82.30
65146;DHT22;51730;56.950;24.126;2023-02-22T08:35:25;-1.10;82.70
65146;DHT22;51730;56.950;24.126;2023-02-22T08:37:54;-1.60;80.00
65146;DHT22;51730;56.950;24.126;2023-02-22T08:40:22;-1.60;84.10
65146;DHT22;51730;56.950;24.126;2023-02-22T08:42:49;-1.70;80.60
65146;DHT22;51730;56.950;24.126;2023-02-22T08:45:16;-1.70;82.70
65146;DHT22;51730;56.950;24.126;2023-02-22T08:47:43;-1.80;83.20
65146;DHT22;51730;56.950;24.126;2023-02-22T08:50:14;-1.80;84.60
65146;DHT22;51730;56.950;24.126;2023-02-22T08:52:41;-1.60;82.20
65146;DHT22;51730;56.950;24.126;2023-02-22T08:55:08;-1.40;82.40
65146;DHT22;51730;56.950;24.126;2023-02-22T08:57:35;-1.20;82.90
65146;DHT22;51730;56.950;24.126;2023-02-22T09:00:03;-1.40;81.50
65146;DHT22;51730;56.950;24.126;2023-02-22T09:02:30;-1.30;81.70
65146;DHT22;51730;56.950;24.126;2023-02-22T09:04:57;-1.20;82.40
65146;DHT22;51730;56.950;24.126;2023-02-22T09:07:23;-1.10;80.70
65146;DHT22;51730;56.950;24.126;2023-02-22T09:09:50;-1.20;81.90
65146;DHT22;51730;56.950;24.126;2023-02-22T09:12:17;-1.20;81.50
65146;DHT22;51730;56.950;24.126;2023-02-22T09:14:43;-1.10;79.10
65146;DHT22;51730;56.950;24.126;2023-02-22T09:17:10;-1.20;79.20
65146;DHT22;51730;56.950;24.126;2023-02-22T09:19:37;-1.20;80.10
65146;DHT22;51730;56.950;24.126;2023-02-22T09:22:04;-1.20;79.20
65146;DHT22;51730;56.950;24.126;2023-02-22T09:24:31;-1.50;79.90
65146;DHT22;51730;56.950;24.126;2023-02-22T09:26:57;-1.60;81.70
65146;DHT22;51730;56.950;24.126;2023-02-22T09:29:26;-1.80;81.30
65146;DHT22;51730;56.950;24.126;2023-02-22T09:31:53;-1.90;81.70
65146;DHT22;51730;56.950;24.126;2023-02-22T09:34:22;-2.00;83.00
65146;DHT22;51730;56.950;24.126;2023-02-22T09:36:55;-2.00;84.70
65146;DHT22;51730;56.950;24.126;2023-02-22T09:39:25;-2.10;83.40
65146;DHT22;51730;56.950;24.126;2023-02-22T09:44:21;-1.10;81.70
65146;DHT22;51730;56.950;24.126;2023-02-22T09:46:50;-1.40;79.60
65146;DHT22;51730;56.950;24.126;2023-02-22T09:52:13;-1.20;79.30
65146;DHT22;51730;56.950;24.126;2023-02-22T09:54:46;-1.20;76.70
65146;DHT22;51730;56.950;24.126;2023-02-22T09:57:21;-1.20;76.10
65146;DHT22;51730;56.950;24.126;2023-02-22T10:02:28;-1.00;74.30
65146;DHT22;51730;56.950;24.126;2023-02-22T10:05:06;-0.90;71.60
65146;DHT22;51730;56.950;24.126;2023-02-22T10:07:35;-0.80;73.40
65146;DHT22;51730;56.950;24.126;2023-02-22T10:10:04;-0.70;71.70
65146;DHT22;51730;56.950;24.126;2023-02-22T10:12:42;-0.70;71.10
65146;DHT22;51730;56.950;24.126;2023-02-22T10:23:03;-0.80;71.40
65146;DHT22;51730;56.950;24.126;2023-02-22T10:25:30;-0.70;73.70
65146;DHT22;51730;56.950;24.126;2023-02-22T10:28:02;-0.50;71.00
65146;DHT22;51730;56.950;24.126;2023-02-22T10:30:34;-0.60;71.20
65146;DHT22;51730;56.950;24.126;2023-02-22T10:33:05;-0.50;68.60
65146;DHT22;51730;56.950;24.126;2023-02-22T10:35:36;-0.70;69.90
65146;DHT22;51730;56.950;24.126;2023-02-22T10:38:16;-0.60;70.90
65146;DHT22;51730;56.950;24.126;2023-02-22T10:40:46;-1.00;70.00
65146;DHT22;51730;56.950;24.126;2023-02-22T10:43:15;-0.90;71.40
65146;DHT22;51730;56.950;24.126;2023-02-22T10:45:42;-0.90;70.10
65146;DHT22;51730;56.950;24.126;2023-02-22T10:48:13;-0.70;71.50
65146;DHT22;51730;56.950;24.126;2023-02-22T10:50:41;-0.70;69.60
65146;DHT22;51730;56.950;24.126;2023-02-22T10:53:08;-0.80;69.40
65146;DHT22;51730;56.950;24.126;2023-02-22T10:55:35;-0.60;69.30
65146;DHT22;51730;56.950;24.126;2023-02-22T10:58:22;-0.50;69.80
65146;DHT22;51730;56.950;24.126;2023-02-22T11:00:49;-0.50;65.70
65146;DHT22;51730;56.950;24.126;2023-02-22T11:03:21;-0.80;66.70
65146;DHT22;51730;56.950;24.126;2023-02-22T11:05:49;-1.10;68.50
65146;DHT22;51730;56.950;24.126;2023-02-22T11:08:29;-0.70;70.10
65146;DHT22;51730;56.950;24.126;2023-02-22T11:11:01;-0.70;67.70
65146;DHT22;51730;56.950;24.126;2023-02-22T11:18:47;-0.80;67.90
65146;DHT22;51730;56.950;24.126;2023-02-22T11:21:19;-0.80;67.30
65146;DHT22;51730;56.950;24.126;2023-02-22T11:23:48;-0.70;68.40
65146;DHT22;51730;56.950;24.126;2023-02-22T11:26:17;-0.90;67.30
65146;DHT22;51730;56.950;24.126;2023-02-22T11:28:47;-0.80;69.80
65146;DHT22;51730;56.950;24.126;2023-02-22T11:31:22;-0.50;69.80
65146;DHT22;51730;56.950;24.126;2023-02-22T11:33:51;-0.60;67.20
65146;DHT22;51730;56.950;24.126;2023-02-22T11:36:28;-0.60;68.40
65146;DHT22;51730;56.950;24.126;2023-02-22T11:38:56;-0.50;68.70
65146;DHT22;51730;56.950;24.126;2023-02-22T11:41:29;-0.50;67.00
65146;DHT22;51730;56.950;24.126;2023-02-22T11:44:11;-0.80;68.00
65146;DHT22;51730;56.950;24.126;2023-02-22T11:46:38;-0.80;68.80
65146;DHT22;51730;56.950;24.126;2023-02-22T11:49:07;-1.00;70.10
65146;DHT22;51730;56.950;24.126;2023-02-22T12:20:44;-1.00;70.00
65146;DHT22;51730;56.950;24.126;2023-02-22T12:25:54;-0.50;69.90
65146;DHT22;51730;56.950;24.126;2023-02-22T12:31:12;-1.00;66.90
65146;DHT22;51730;56.950;24.126;2023-02-22T12:33:50;-0.90;67.50
65146;DHT22;51730;56.950;24.126;2023-02-22T12:36:20;-0.80;67.10
65146;DHT22;51730;56.950;24.126;2023-02-22T12:38:53;-0.90;67.40
65146;DHT22;51730;56.950;24.126;2023-02-22T12:41:32;-0.80;69.20
65146;DHT22;51730;56.950;24.126;2023-02-22T12:44:34;-0.80;67.00
65146;DHT22;51730;56.950;24.126;2023-02-22T12:46:54;-0.90;67.50
65146;DHT22;51730;56.950;24.126;2023-02-22T12:52:12;-0.90;66.40
65146;DHT22;51730;56.950;24.126;2023-02-22T12:54:50;-1.10;65.00
65146;DHT22;51730;56.950;24.126;2023-02-22T12:59:59;-0.80;67.70
65146;DHT22;51730;56.950;24.126;2023-02-22T13:02:29;-0.60;71.50
65146;DHT22;51730;56.950;24.126;2023-02-22T13:04:59;-0.60;68.20
65146;DHT22;51730;56.950;24.126;2023-02-22T13:07:40;-0.60;65.00
65146;DHT22;51730;56.950;24.126;2023-02-22T13:10:21;-0.80;65.20
65146;DHT22;51730;56.950;24.126;2023-02-22T13:15:29;-0.80;64.70
65146;DHT22;51730;56.950;24.126;2023-02-22T13:18:04;-0.90;64.80
65146;DHT22;51730;56.950;24.126;2023-02-22T13:20:44;-1.10;65.60
65146;DHT22;51730;56.950;24.126;2023-02-22T13:26:00;-1.00;66.00
65146;DHT22;51730;56.950;24.126;2023-02-22T13:28:35;-0.90;65.30
65146;DHT22;51730;56.950;24.126;2023-02-22T13:39:06;-0.90;64.50
65146;DHT22;51730;56.950;24.126;2023-02-22T13:42:28;-1.00;66.20
65146;DHT22;51730;56.950;24.126;2023-02-22T13:52:10;-1.20;66.50
65146;DHT22;51730;56.950;24.126;2023-02-22T14:00:16;-1.20;66.50
65146;DHT22;51730;56.950;24.126;2023-02-22T14:03:39;-1.10;66.00
65146;DHT22;51730;56.950;24.126;2023-02-22T14:05:35;-1.00;65.30
65146;DHT22;51730;56.950;24.126;2023-02-22T14:08:03;-1.10;65.10
65146;DHT22;51730;56.950;24.126;2023-02-22T14:11:38;-1.10;65.80
65146;DHT22;51730;56.950;24.126;2023-02-22T14:13:25;-1.10;64.40
65146;DHT22;51730;56.950;24.126;2023-02-22T14:18:28;-1.50;65.30
65146;DHT22;51730;56.950;24.126;2023-02-22T14:21:08;-1.40;65.60
65146;DHT22;51730;56.950;24.126;2023-02-22T14:23:37;-1.40;66.30
65146;DHT22;51730;56.950;24.126;2023-02-22T14:31:16;-1.50;66.40
65146;DHT22;51730;56.950;24.126;2023-02-22T14:39:35;-1.50;64.50
65146;DHT22;51730;56.950;24.126;2023-02-22T14:42:01;-1.50;64.40
65146;DHT22;51730;56.950;24.126;2023-02-22T14:44:32;-1.60;64.00
65146;DHT22;51730;56.950;24.126;2023-02-22T14:47:02;-1.60;63.20
65146;DHT22;51730;56.950;24.126;2023-02-22T14:49:31;-1.70;63.30
65146;DHT22;51730;56.950;24.126;2023-02-22T14:52:01;-1.70;63.40
65146;DHT22;51730;56.950;24.126;2023-02-22T14:57:06;-1.90;63.50
65146;DHT22;51730;56.950;24.126;2023-02-22T15:00:42;-1.90;62.90
65146;DHT22;51730;56.950;24.126;2023-02-22T15:02:46;-2.10;63.80
65146;DHT22;51730;56.950;24.126;2023-02-22T15:05:14;-2.00;63.80
65146;DHT22;51730;56.950;24.126;2023-02-22T15:07:51;-1.90;63.50
65146;DHT22;51730;56.950;24.126;2023-02-22T15:15:35;-2.20;63.20
65146;DHT22;51730;56.950;24.126;2023-02-22T15:18:03;-2.20;63.90
65146;DHT22;51730;56.950;24.126;2023-02-22T15:20:33;-2.20;63.40
65146;DHT22;51730;56.950;24.126;2023-02-22T15:23:00;-2.30;63.30
65146;DHT22;51730;56.950;24.126;2023-02-22T15:25:27;-2.20;65.40
65146;DHT22;51730;56.950;24.126;2023-02-22T15:28:02;-2.20;64.60
65146;DHT22;51730;56.950;24.126;2023-02-22T15:30:30;-2.20;64.70
65146;DHT22;51730;56.950;24.126;2023-02-22T15:33:14;-2.10;65.20
65146;DHT22;51730;56.950;24.126;2023-02-22T15:35:42;-2.30;65.00
65146;DHT22;51730;56.950;24.126;2023-02-22T15:40:39;-2.40;66.10
65146;DHT22;51730;56.950;24.126;2023-02-22T15:43:22;-2.40;66.80
65146;DHT22;51730;56.950;24.126;2023-02-22T15:45:50;-2.40;67.10
65146;DHT22;51730;56.950;24.126;2023-02-22T15:48:17;-2.20;68.90
65146;DHT22;51730;56.950;24.126;2023-02-22T15:53:42;-2.40;68.10
65146;DHT22;51730;56.950;24.126;2023-02-22T15:56:11;-2.40;68.30
65146;DHT22;51730;56.950;24.126;2023-02-22T15:58:39;-2.40;68.60
65146;DHT22;51730;56.950;24.126;2023-02-22T16:01:13;-2.50;69.00
65146;DHT22;51730;56.950;24.126;2023-02-22T16:03:45;-2.70;69.20
65146;DHT22;51730;56.950;24.126;2023-02-22T16:06:14;-2.80;70.20
65146;DHT22;51730;56.950;24.126;2023-02-22T16:08:48;-2.90;70.60
65146;DHT22;51730;56.950;24.126;2023-02-22T16:11:22;-3.00;71.70
65146;DHT22;51730;56.950;24.126;2023-02-22T16:13:56;-3.10;72.30
65146;DHT22;51730;56.950;24.126;2023-02-22T16:16:26;-3.00;73.10
65146;DHT22;51730;56.950;24.126;2023-02-22T16:19:14;-3.00;72.20
65146;DHT22;51730;56.950;24.126;2023-02-22T16:22:41;-3.00;73.40
65146;DHT22;51730;56.950;24.126;2023-02-22T16:24:39;-2.90;73.60
65146;DHT22;51730;56.950;24.126;2023-02-22T16:29:35;-3.00;74.20
65146;DHT22;51730;56.950;24.126;2023-02-22T16:32:02;-3.00;73.80
65146;DHT22;51730;56.950;24.126;2023-02-22T16:34:30;-3.10;74.90
65146;DHT22;51730;56.950;24.126;2023-02-22T16:36:57;-3.00;75.10
65146;DHT22;51730;56.950;24.126;2023-02-22T16:39:24;-3.10;74.80
65146;DHT22;51730;56.950;24.126;2023-02-22T16:41:56;-3.20;75.10
65146;DHT22;51730;56.950;24.126;2023-02-22T16:44:23;-3.30;75.20
65146;DHT22;51730;56.950;24.126;2023-02-22T16:46:54;-3.30;76.00
65146;DHT22;51730;56.950;24.126;2023-02-22T16:49:21;-3.30;75.90
65146;DHT22;51730;56.950;24.126;2023-02-22T16:51:52;-3.40;77.30
65146;DHT22;51730;56.950;24.126;2023-02-22T16:54:27;-3.30;77.50
65146;DHT22;51730;56.950;24.126;2023-02-22T16:56:55;-3.20;78.10
65146;DHT22;51730;56.950;24.126;2023-02-22T16:59:22;-3.30;76.10
65146;DHT22;51730;56.950;24.126;2023-02-22T17:01:49;-3.50;77.50
65146;DHT22;51730;56.950;24.126;2023-02-22T17:04:20;-3.50;79.90
65146;DHT22;51730;56.950;24.126;2023-02-22T17:06:47;-3.50;79.20
65146;DHT22;51730;56.950;24.126;2023-02-22T17:09:14;-3.20;80.90
65146;DHT22;51730;56.950;24.126;2023-02-22T17:11:41;-3.20;78.90
65146;DHT22;51730;56.950;24.126;2023-02-22T17:14:09;-2.90;80.10
65146;DHT22;51730;56.950;24.126;2023-02-22T17:16:36;-2.80;78.80
65146;DHT22;51730;56.950;24.126;2023-02-22T17:19:04;-3.00;78.00
65146;DHT22;51730;56.950;24.126;2023-02-22T17:21:31;-3.10;78.80
65146;DHT22;51730;56.950;24.126;2023-02-22T17:23:58;-3.30;79.20
65146;DHT22;51730;56.950;24.126;2023-02-22T17:26:25;-3.20;80.50
65146;DHT22;51730;56.950;24.126;2023-02-22T17:28:53;-3.20;81.30
65146;DHT22;51730;56.950;24.126;2023-02-22T17:31:21;-3.00;82.10
65146;DHT22;51730;56.950;24.126;2023-02-22T17:33:49;-3.20;80.10
65146;DHT22;51730;56.950;24.126;2023-02-22T17:36:17;-3.40;82.10
65146;DHT22;51730;56.950;24.126;2023-02-22T17:38:44;-3.50;83.40
65146;DHT22;51730;56.950;24.126;2023-02-22T17:41:10;-3.40;85.70
65146;DHT22;51730;56.950;24.126;2023-02-22T17:43:37;-3.30;84.80
65146;DHT22;51730;56.950;24.126;2023-02-22T17:46:05;-3.30;84.70
65146;DHT22;51730;56.950;24.126;2023-02-22T17:48:33;-3.40;85.50
65146;DHT22;51730;56.950;24.126;2023-02-22T17:51:08;-3.20;85.60
65146;DHT22;51730;56.950;24.126;2023-02-22T17:53:36;-3.10;84.90
65146;DHT22;51730;56.950;24.126;2023-02-22T17:56:06;-3.10;84.90